sensor_id;sensor_type;location;lat;lon;timestamp;P1;durP1;ratioP1;P2;durP2;ratioP2
6027;SDS011;3042;43.194;27.646;2022-10-31T00:00:15;24.50;;;11.27;;
6027;SDS011;3042;43.194;27.646;2022-10-31T00:02:42;25.73;;;11.30;;
6027;SDS011;3042;43.194;27.646;2022-10-31T00:05:09;13.57;;;9.77;;
6027;SDS011;3042;43.194;27.646;2022-10-31T00:07:37;17.93;;;10.57;;
6027;SDS011;3042;43.194;27.646;2022-10-31T00:10:04;21.43;;;12.27;;
6027;SDS011;3042;43.194;27.646;2022-10-31T00:12:32;20.03;;;11.60;;
6027;SDS011;3042;43.194;27.646;2022-10-31T00:15:00;11.93;;;10.63;;
6027;SDS011;3042;43.194;27.646;2022-10-31T00:17:28;14.40;;;11.00;;
6027;SDS011;3042;43.194;27.646;2022-10-31T00:19:55;15.60;;;10.73;;
6027;SDS011;3042;43.194;27.646;2022-10-31T00:22:23;23.47;;;10.67;;
6027;SDS011;3042;43.194;27.646;2022-10-31T00:24:51;30.73;;;13.23;;
6027;SDS011;3042;43.194;27.646;2022-10-31T00:27:18;13.90;;;11.30;;
6027;SDS011;3042;43.194;27.646;2022-10-31T00:29:45;18.00;;;10.93;;
6027;SDS011;3042;43.194;27.646;2022-10-31T00:32:13;21.20;;;10.87;;
6027;SDS011;3042;43.194;27.646;2022-10-31T00:34:41;17.10;;;11.07;;
6027;SDS011;3042;43.194;27.646;2022-10-31T00:37:08;29.07;;;12.53;;
6027;SDS011;3042;43.194;27.646;2022-10-31T00:39:36;32.93;;;13.13;;
6027;SDS011;3042;43.194;27.646;2022-10-31T00:42:03;37.77;;;12.43;;
6027;SDS011;3042;43.194;27.646;2022-10-31T00:44:30;25.73;;;12.57;;
6027;SDS011;3042;43.194;27.646;2022-10-31T00:46:57;21.83;;;13.30;;
6027;SDS011;3042;43.194;27.646;2022-10-31T00:49:25;27.97;;;14.03;;
6027;SDS011;3042;43.194;27.646;2022-10-31T00:51:53;51.03;;;15.20;;
6027;SDS011;3042;43.194;27.646;2022-10-31T00:54:21;24.20;;;13.57;;
6027;SDS011;3042;43.194;27.646;2022-10-31T00:56:48;53.53;;;16.83;;
6027;SDS011;3042;43.194;27.646;2022-10-31T00:59:15;46.97;;;17.07;;
6027;SDS011;3042;43.194;27.646;2022-10-31T01:01:42;58.87;;;17.07;;
6027;SDS011;3042;43.194;27.646;2022-10-31T01:04:09;105.87;;;20.03;;
6027;SDS011;3042;43.194;27.646;2022-10-31T01:06:36;68.27;;;16.83;;
6027;SDS011;3042;43.194;27.646;2022-10-31T01:09:05;40.60;;;12.37;;
6027;SDS011;3042;43.194;27.646;2022-10-31T01:11:32;24.03;;;13.10;;
6027;SDS011;3042;43.194;27.646;2022-10-31T01:14:00;28.63;;;12.67;;
6027;SDS011;3042;43.194;27.646;2022-10-31T01:16:27;20.30;;;11.87;;
6027;SDS011;3042;43.194;27.646;2022-10-31T01:18:55;11.47;;;9.13;;
6027;SDS011;3042;43.194;27.646;2022-10-31T01:21:22;18.03;;;10.73;;
6027;SDS011;3042;43.194;27.646;2022-10-31T01:23:52;17.40;;;10.53;;
6027;SDS011;3042;43.194;27.646;2022-10-31T01:26:22;15.90;;;9.80;;
6027;SDS011;3042;43.194;27.646;2022-10-31T01:28:52;20.30;;;10.43;;
6027;SDS011;3042;43.194;27.646;2022-10-31T01:31:20;26.33;;;12.20;;
6027;SDS011;3042;43.194;27.646;2022-10-31T01:33:50;18.20;;;11.33;;
6027;SDS011;3042;43.194;27.646;2022-10-31T01:36:18;18.43;;;10.10;;
6027;SDS011;3042;43.194;27.646;2022-10-31T01:38:47;35.57;;;11.80;;
6027;SDS011;3042;43.194;27.646;2022-10-31T01:41:15;34.93;;;12.23;;
6027;SDS011;3042;43.194;27.646;2022-10-31T01:43:47;13.67;;;10.90;;
6027;SDS011;3042;43.194;27.646;2022-10-31T01:46:17;17.60;;;10.60;;
6027;SDS011;3042;43.194;27.646;2022-10-31T01:48:50;29.50;;;12.50;;
6027;SDS011;3042;43.194;27.646;2022-10-31T01:51:19;17.13;;;11.13;;
6027;SDS011;3042;43.194;27.646;2022-10-31T01:53:50;58.37;;;14.07;;
6027;SDS011;3042;43.194;27.646;2022-10-31T01:56:21;68.90;;;14.33;;
6027;SDS011;3042;43.194;27.646;2022-10-31T01:58:50;57.43;;;14.40;;
6027;SDS011;3042;43.194;27.646;2022-10-31T02:01:19;23.10;;;12.43;;
6027;SDS011;3042;43.194;27.646;2022-10-31T02:03:47;17.83;;;12.50;;
6027;SDS011;3042;43.194;27.646;2022-10-31T02:06:18;19.27;;;10.40;;
6027;SDS011;3042;43.194;27.646;2022-10-31T02:08:54;11.67;;;10.27;;
6027;SDS011;3042;43.194;27.646;2022-10-31T02:11:24;19.67;;;11.10;;
6027;SDS011;3042;43.194;27.646;2022-10-31T02:13:53;21.30;;;12.00;;
6027;SDS011;3042;43.194;27.646;2022-10-31T02:16:21;14.53;;;10.10;;
6027;SDS011;3042;43.194;27.646;2022-10-31T02:18:48;30.87;;;10.63;;
6027;SDS011;3042;43.194;27.646;2022-10-31T02:21:16;25.40;;;9.90;;
6027;SDS011;3042;43.194;27.646;2022-10-31T02:24:10;32.73;;;12.03;;
6027;SDS011;3042;43.194;27.646;2022-10-31T02:30:07;35.90;;;13.30;;
6027;SDS011;3042;43.194;27.646;2022-10-31T02:35:39;30.50;;;12.70;;
6027;SDS011;3042;43.194;27.646;2022-10-31T02:38:16;25.90;;;12.17;;
6027;SDS011;3042;43.194;27.646;2022-10-31T02:40:56;29.47;;;11.47;;
6027;SDS011;3042;43.194;27.646;2022-10-31T02:43:31;29.03;;;11.57;;
6027;SDS011;3042;43.194;27.646;2022-10-31T02:46:03;23.43;;;12.63;;
6027;SDS011;3042;43.194;27.646;2022-10-31T02:48:38;21.30;;;12.43;;
6027;SDS011;3042;43.194;27.646;2022-10-31T02:51:08;26.00;;;12.10;;
6027;SDS011;3042;43.194;27.646;2022-10-31T02:53:38;34.67;;;12.07;;
6027;SDS011;3042;43.194;27.646;2022-10-31T02:56:06;51.13;;;14.00;;
6027;SDS011;3042;43.194;27.646;2022-10-31T02:58:39;27.80;;;12.60;;
6027;SDS011;3042;43.194;27.646;2022-10-31T03:07:06;21.10;;;10.53;;
6027;SDS011;3042;43.194;27.646;2022-10-31T03:09:39;22.73;;;11.27;;
6027;SDS011;3042;43.194;27.646;2022-10-31T03:12:14;23.77;;;10.93;;
6027;SDS011;3042;43.194;27.646;2022-10-31T03:14:53;27.50;;;12.10;;
6027;SDS011;3042;43.194;27.646;2022-10-31T03:17:29;21.73;;;11.10;;
6027;SDS011;3042;43.194;27.646;2022-10-31T03:20:03;13.13;;;9.50;;
6027;SDS011;3042;43.194;27.646;2022-10-31T03:22:34;14.80;;;11.10;;
6027;SDS011;3042;43.194;27.646;2022-10-31T03:25:04;15.67;;;10.47;;
6027;SDS011;3042;43.194;27.646;2022-10-31T03:27:34;12.13;;;10.77;;
6027;SDS011;3042;43.194;27.646;2022-10-31T03:30:05;12.90;;;10.10;;
6027;SDS011;3042;43.194;27.646;2022-10-31T03:32:34;11.57;;;10.00;;
6027;SDS011;3042;43.194;27.646;2022-10-31T03:35:05;17.03;;;10.00;;
6027;SDS011;3042;43.194;27.646;2022-10-31T03:37:37;13.60;;;11.10;;
6027;SDS011;3042;43.194;27.646;2022-10-31T03:40:07;21.47;;;11.40;;
6027;SDS011;3042;43.194;27.646;2022-10-31T03:42:38;18.73;;;11.10;;
6027;SDS011;3042;43.194;27.646;2022-10-31T03:45:09;15.17;;;9.57;;
6027;SDS011;3042;43.194;27.646;2022-10-31T03:47:39;15.87;;;10.73;;
6027;SDS011;3042;43.194;27.646;2022-10-31T03:50:08;10.87;;;9.77;;
6027;SDS011;3042;43.194;27.646;2022-10-31T03:52:42;15.10;;;10.20;;
6027;SDS011;3042;43.194;27.646;2022-10-31T03:55:16;15.73;;;11.00;;
6027;SDS011;3042;43.194;27.646;2022-10-31T03:57:45;14.60;;;11.60;;
6027;SDS011;3042;43.194;27.646;2022-10-31T04:00:18;16.93;;;10.97;;
6027;SDS011;3042;43.194;27.646;2022-10-31T04:02:47;13.13;;;10.87;;
6027;SDS011;3042;43.194;27.646;2022-10-31T04:05:19;21.40;;;11.83;;
6027;SDS011;3042;43.194;27.646;2022-10-31T04:07:50;20.13;;;12.43;;
6027;SDS011;3042;43.194;27.646;2022-10-31T04:10:20;23.50;;;10.60;;
6027;SDS011;3042;43.194;27.646;2022-10-31T04:12:50;14.97;;;11.40;;
6027;SDS011;3042;43.194;27.646;2022-10-31T04:15:22;20.63;;;12.43;;
6027;SDS011;3042;43.194;27.646;2022-10-31T04:17:52;16.63;;;11.07;;
6027;SDS011;3042;43.194;27.646;2022-10-31T04:20:29;15.20;;;12.17;;
6027;SDS011;3042;43.194;27.646;2022-10-31T04:22:58;16.93;;;11.83;;
6027;SDS011;3042;43.194;27.646;2022-10-31T04:25:25;25.40;;;12.17;;
6027;SDS011;3042;43.194;27.646;2022-10-31T04:27:53;18.77;;;12.70;;
6027;SDS011;3042;43.194;27.646;2022-10-31T04:30:20;14.30;;;10.83;;
6027;SDS011;3042;43.194;27.646;2022-10-31T04:32:48;23.63;;;12.20;;
6027;SDS011;3042;43.194;27.646;2022-10-31T04:35:15;22.80;;;12.33;;
6027;SDS011;3042;43.194;27.646;2022-10-31T04:37:42;20.33;;;11.70;;
6027;SDS011;3042;43.194;27.646;2022-10-31T04:40:11;21.90;;;12.73;;
6027;SDS011;3042;43.194;27.646;2022-10-31T04:42:38;42.03;;;12.17;;
6027;SDS011;3042;43.194;27.646;2022-10-31T04:45:06;17.63;;;10.90;;
6027;SDS011;3042;43.194;27.646;2022-10-31T04:47:33;17.37;;;11.10;;
6027;SDS011;3042;43.194;27.646;2022-10-31T04:50:01;20.63;;;11.00;;
6027;SDS011;3042;43.194;27.646;2022-10-31T04:52:28;16.30;;;11.37;;
6027;SDS011;3042;43.194;27.646;2022-10-31T04:54:55;18.00;;;12.17;;
6027;SDS011;3042;43.194;27.646;2022-10-31T04:57:24;20.57;;;12.07;;
6027;SDS011;3042;43.194;27.646;2022-10-31T04:59:51;19.20;;;11.00;;
6027;SDS011;3042;43.194;27.646;2022-10-31T05:02:18;16.50;;;11.13;;
6027;SDS011;3042;43.194;27.646;2022-10-31T05:04:45;19.53;;;10.43;;
6027;SDS011;3042;43.194;27.646;2022-10-31T05:07:12;14.30;;;10.50;;
6027;SDS011;3042;43.194;27.646;2022-10-31T05:09:40;16.57;;;11.40;;
6027;SDS011;3042;43.194;27.646;2022-10-31T05:12:07;17.47;;;11.10;;
6027;SDS011;3042;43.194;27.646;2022-10-31T05:14:36;20.80;;;11.63;;
6027;SDS011;3042;43.194;27.646;2022-10-31T05:17:03;24.90;;;11.50;;
6027;SDS011;3042;43.194;27.646;2022-10-31T05:19:30;21.27;;;11.23;;
6027;SDS011;3042;43.194;27.646;2022-10-31T05:21:57;49.70;;;15.40;;
6027;SDS011;3042;43.194;27.646;2022-10-31T05:24:24;44.80;;;12.67;;
6027;SDS011;3042;43.194;27.646;2022-10-31T05:26:52;91.23;;;21.27;;
6027;SDS011;3042;43.194;27.646;2022-10-31T05:29:19;78.13;;;23.07;;
6027;SDS011;3042;43.194;27.646;2022-10-31T05:31:48;61.63;;;22.00;;
6027;SDS011;3042;43.194;27.646;2022-10-31T05:34:15;49.47;;;19.93;;
6027;SDS011;3042;43.194;27.646;2022-10-31T05:36:42;97.60;;;26.60;;
6027;SDS011;3042;43.194;27.646;2022-10-31T05:39:09;86.53;;;22.80;;
6027;SDS011;3042;43.194;27.646;2022-10-31T05:41:36;30.93;;;15.93;;
6027;SDS011;3042;43.194;27.646;2022-10-31T05:44:04;66.10;;;15.57;;
6027;SDS011;3042;43.194;27.646;2022-10-31T05:46:31;52.27;;;15.87;;
6027;SDS011;3042;43.194;27.646;2022-10-31T05:49:00;80.67;;;17.50;;
6027;SDS011;3042;43.194;27.646;2022-10-31T05:51:28;108.37;;;21.10;;
6027;SDS011;3042;43.194;27.646;2022-10-31T05:53:55;63.17;;;16.63;;
6027;SDS011;3042;43.194;27.646;2022-10-31T05:56:22;80.77;;;19.03;;
6027;SDS011;3042;43.194;27.646;2022-10-31T05:58:49;119.80;;;28.67;;
6027;SDS011;3042;43.194;27.646;2022-10-31T06:01:16;135.67;;;29.83;;
6027;SDS011;3042;43.194;27.646;2022-10-31T06:03:44;132.03;;;28.17;;
6027;SDS011;3042;43.194;27.646;2022-10-31T06:06:12;100.22;;;27.38;;
6027;SDS011;3042;43.194;27.646;2022-10-31T06:08:39;107.07;;;24.03;;
6027;SDS011;3042;43.194;27.646;2022-10-31T06:11:07;139.33;;;26.47;;
6027;SDS011;3042;43.194;27.646;2022-10-31T06:13:34;100.93;;;23.07;;
6027;SDS011;3042;43.194;27.646;2022-10-31T06:16:02;166.27;;;22.13;;
6027;SDS011;3042;43.194;27.646;2022-10-31T06:18:29;143.93;;;21.47;;
6027;SDS011;3042;43.194;27.646;2022-10-31T06:20:56;63.27;;;16.33;;
6027;SDS011;3042;43.194;27.646;2022-10-31T06:23:25;42.10;;;15.13;;
6027;SDS011;3042;43.194;27.646;2022-10-31T06:25:52;84.00;;;16.60;;
6027;SDS011;3042;43.194;27.646;2022-10-31T06:28:20;77.27;;;14.90;;
6027;SDS011;3042;43.194;27.646;2022-10-31T06:30:47;55.33;;;13.20;;
6027;SDS011;3042;43.194;27.646;2022-10-31T06:33:15;82.00;;;16.23;;
6027;SDS011;3042;43.194;27.646;2022-10-31T06:35:44;43.37;;;15.50;;
6027;SDS011;3042;43.194;27.646;2022-10-31T06:38:12;47.70;;;15.37;;
6027;SDS011;3042;43.194;27.646;2022-10-31T06:40:41;68.93;;;18.30;;
6027;SDS011;3042;43.194;27.646;2022-10-31T06:43:08;42.37;;;12.90;;
6027;SDS011;3042;43.194;27.646;2022-10-31T06:45:36;38.03;;;12.67;;
6027;SDS011;3042;43.194;27.646;2022-10-31T06:48:04;63.50;;;14.83;;
6027;SDS011;3042;43.194;27.646;2022-10-31T06:50:31;45.63;;;16.77;;
6027;SDS011;3042;43.194;27.646;2022-10-31T06:52:58;67.23;;;21.27;;
6027;SDS011;3042;43.194;27.646;2022-10-31T06:55:26;51.10;;;19.17;;
6027;SDS011;3042;43.194;27.646;2022-10-31T06:57:55;82.47;;;20.53;;
6027;SDS011;3042;43.194;27.646;2022-10-31T07:00:24;51.10;;;16.93;;
6027;SDS011;3042;43.194;27.646;2022-10-31T07:02:53;35.67;;;15.50;;
6027;SDS011;3042;43.194;27.646;2022-10-31T07:05:21;37.37;;;15.83;;
6027;SDS011;3042;43.194;27.646;2022-10-31T07:07:51;51.47;;;12.90;;
6027;SDS011;3042;43.194;27.646;2022-10-31T07:10:19;23.53;;;9.60;;
6027;SDS011;3042;43.194;27.646;2022-10-31T07:12:46;27.30;;;11.30;;
6027;SDS011;3042;43.194;27.646;2022-10-31T07:15:15;30.33;;;12.03;;
6027;SDS011;3042;43.194;27.646;2022-10-31T07:17:42;18.10;;;9.83;;
6027;SDS011;3042;43.194;27.646;2022-10-31T07:20:09;33.60;;;9.80;;
6027;SDS011;3042;43.194;27.646;2022-10-31T07:22:37;14.73;;;8.27;;
6027;SDS011;3042;43.194;27.646;2022-10-31T07:25:04;32.90;;;11.20;;
6027;SDS011;3042;43.194;27.646;2022-10-31T07:27:35;22.43;;;10.93;;
6027;SDS011;3042;43.194;27.646;2022-10-31T07:30:03;42.53;;;15.40;;
6027;SDS011;3042;43.194;27.646;2022-10-31T07:32:38;33.10;;;14.53;;
6027;SDS011;3042;43.194;27.646;2022-10-31T07:35:06;28.93;;;13.70;;
6027;SDS011;3042;43.194;27.646;2022-10-31T07:37:34;29.57;;;16.23;;
6027;SDS011;3042;43.194;27.646;2022-10-31T07:40:02;62.60;;;15.40;;
6027;SDS011;3042;43.194;27.646;2022-10-31T07:42:34;20.80;;;13.13;;
6027;SDS011;3042;43.194;27.646;2022-10-31T07:45:01;35.00;;;13.57;;
6027;SDS011;3042;43.194;27.646;2022-10-31T07:47:28;34.33;;;15.07;;
6027;SDS011;3042;43.194;27.646;2022-10-31T07:49:57;50.43;;;15.23;;
6027;SDS011;3042;43.194;27.646;2022-10-31T07:52:24;57.00;;;14.20;;
6027;SDS011;3042;43.194;27.646;2022-10-31T07:54:52;22.63;;;10.87;;
6027;SDS011;3042;43.194;27.646;2022-10-31T07:57:19;33.70;;;12.37;;
6027;SDS011;3042;43.194;27.646;2022-10-31T07:59:46;24.37;;;11.13;;
6027;SDS011;3042;43.194;27.646;2022-10-31T08:02:14;64.83;;;16.67;;
6027;SDS011;3042;43.194;27.646;2022-10-31T08:04:41;71.47;;;14.83;;
6027;SDS011;3042;43.194;27.646;2022-10-31T08:07:10;23.50;;;10.90;;
6027;SDS011;3042;43.194;27.646;2022-10-31T08:09:37;14.53;;;10.73;;
6027;SDS011;3042;43.194;27.646;2022-10-31T08:12:04;19.60;;;10.80;;
6027;SDS011;3042;43.194;27.646;2022-10-31T08:14:31;26.70;;;10.43;;
6027;SDS011;3042;43.194;27.646;2022-10-31T08:16:59;13.00;;;9.87;;
6027;SDS011;3042;43.194;27.646;2022-10-31T08:19:26;30.87;;;11.57;;
6027;SDS011;3042;43.194;27.646;2022-10-31T08:21:53;43.73;;;11.93;;
6027;SDS011;3042;43.194;27.646;2022-10-31T08:24:22;25.93;;;11.47;;
6027;SDS011;3042;43.194;27.646;2022-10-31T08:26:49;20.10;;;10.97;;
6027;SDS011;3042;43.194;27.646;2022-10-31T08:29:16;17.17;;;9.80;;
6027;SDS011;3042;43.194;27.646;2022-10-31T08:31:43;13.77;;;9.57;;
6027;SDS011;3042;43.194;27.646;2022-10-31T08:34:11;12.17;;;9.33;;
6027;SDS011;3042;43.194;27.646;2022-10-31T08:36:38;20.57;;;11.33;;
6027;SDS011;3042;43.194;27.646;2022-10-31T08:39:05;16.73;;;9.60;;
6027;SDS011;3042;43.194;27.646;2022-10-31T08:41:34;28.73;;;11.30;;
6027;SDS011;3042;43.194;27.646;2022-10-31T08:44:01;19.27;;;9.70;;
6027;SDS011;3042;43.194;27.646;2022-10-31T08:46:28;21.90;;;9.83;;
6027;SDS011;3042;43.194;27.646;2022-10-31T08:48:56;65.83;;;14.53;;
6027;SDS011;3042;43.194;27.646;2022-10-31T08:51:24;13.30;;;9.80;;
6027;SDS011;3042;43.194;27.646;2022-10-31T08:53:51;26.10;;;11.70;;
6027;SDS011;3042;43.194;27.646;2022-10-31T08:56:18;15.43;;;9.13;;
6027;SDS011;3042;43.194;27.646;2022-10-31T08:58:47;38.80;;;11.83;;
6027;SDS011;3042;43.194;27.646;2022-10-31T09:01:14;53.37;;;12.77;;
6027;SDS011;3042;43.194;27.646;2022-10-31T09:03:41;15.90;;;9.47;;
6027;SDS011;3042;43.194;27.646;2022-10-31T09:06:08;11.67;;;8.90;;
6027;SDS011;3042;43.194;27.646;2022-10-31T09:08:35;15.13;;;9.33;;
6027;SDS011;3042;43.194;27.646;2022-10-31T09:11:03;59.80;;;14.77;;
6027;SDS011;3042;43.194;27.646;2022-10-31T09:13:31;35.60;;;10.97;;
6027;SDS011;3042;43.194;27.646;2022-10-31T09:16:00;14.90;;;9.53;;
6027;SDS011;3042;43.194;27.646;2022-10-31T09:18:27;26.57;;;10.80;;
6027;SDS011;3042;43.194;27.646;2022-10-31T09:20:56;22.20;;;10.70;;
6027;SDS011;3042;43.194;27.646;2022-10-31T09:23:24;19.83;;;10.00;;
6027;SDS011;3042;43.194;27.646;2022-10-31T09:25:52;17.87;;;9.90;;
6027;SDS011;3042;43.194;27.646;2022-10-31T09:28:20;15.60;;;10.90;;
6027;SDS011;3042;43.194;27.646;2022-10-31T09:30:49;23.70;;;9.80;;
6027;SDS011;3042;43.194;27.646;2022-10-31T09:33:19;17.87;;;9.30;;
6027;SDS011;3042;43.194;27.646;2022-10-31T09:35:47;28.63;;;9.90;;
6027;SDS011;3042;43.194;27.646;2022-10-31T09:38:15;12.13;;;8.83;;
6027;SDS011;3042;43.194;27.646;2022-10-31T09:40:45;20.60;;;10.70;;
6027;SDS011;3042;43.194;27.646;2022-10-31T09:43:14;31.70;;;11.20;;
6027;SDS011;3042;43.194;27.646;2022-10-31T09:45:48;16.10;;;9.27;;
6027;SDS011;3042;43.194;27.646;2022-10-31T09:51:09;14.67;;;8.90;;
6027;SDS011;3042;43.194;27.646;2022-10-31T09:53:42;13.30;;;10.07;;
6027;SDS011;3042;43.194;27.646;2022-10-31T09:56:13;18.70;;;8.80;;
6027;SDS011;3042;43.194;27.646;2022-10-31T09:58:42;18.47;;;9.17;;
6027;SDS011;3042;43.194;27.646;2022-10-31T10:04:05;17.47;;;9.60;;
6027;SDS011;3042;43.194;27.646;2022-10-31T10:06:45;18.17;;;10.00;;
6027;SDS011;3042;43.194;27.646;2022-10-31T10:09:16;13.67;;;10.30;;
6027;SDS011;3042;43.194;27.646;2022-10-31T10:11:47;15.77;;;9.90;;
6027;SDS011;3042;43.194;27.646;2022-10-31T10:14:27;13.57;;;9.53;;
6027;SDS011;3042;43.194;27.646;2022-10-31T10:17:07;17.53;;;10.53;;
6027;SDS011;3042;43.194;27.646;2022-10-31T10:19:47;12.63;;;8.80;;
6027;SDS011;3042;43.194;27.646;2022-10-31T10:22:25;13.03;;;10.00;;
6027;SDS011;3042;43.194;27.646;2022-10-31T10:25:03;18.67;;;10.17;;
6027;SDS011;3042;43.194;27.646;2022-10-31T10:27:42;18.00;;;9.77;;
6027;SDS011;3042;43.194;27.646;2022-10-31T10:30:38;9.17;;;8.27;;
6027;SDS011;3042;43.194;27.646;2022-10-31T10:33:09;11.63;;;8.90;;
6027;SDS011;3042;43.194;27.646;2022-10-31T10:35:41;15.13;;;9.47;;
6027;SDS011;3042;43.194;27.646;2022-10-31T10:38:14;20.30;;;8.53;;
6027;SDS011;3042;43.194;27.646;2022-10-31T10:40:46;17.60;;;8.90;;
6027;SDS011;3042;43.194;27.646;2022-10-31T10:43:19;29.17;;;9.20;;
6027;SDS011;3042;43.194;27.646;2022-10-31T10:45:50;19.23;;;8.17;;
6027;SDS011;3042;43.194;27.646;2022-10-31T10:48:43;14.37;;;7.73;;
6027;SDS011;3042;43.194;27.646;2022-10-31T10:51:19;9.97;;;7.23;;
6027;SDS011;3042;43.194;27.646;2022-10-31T10:53:55;12.80;;;8.07;;
6027;SDS011;3042;43.194;27.646;2022-10-31T10:56:33;30.80;;;9.57;;
6027;SDS011;3042;43.194;27.646;2022-10-31T10:59:07;18.20;;;9.03;;
6027;SDS011;3042;43.194;27.646;2022-10-31T11:01:38;27.60;;;9.00;;
6027;SDS011;3042;43.194;27.646;2022-10-31T11:04:13;24.13;;;9.90;;
6027;SDS011;3042;43.194;27.646;2022-10-31T11:07:00;15.53;;;8.97;;
6027;SDS011;3042;43.194;27.646;2022-10-31T11:09:28;21.20;;;8.27;;
6027;SDS011;3042;43.194;27.646;2022-10-31T11:11:56;19.20;;;7.53;;
6027;SDS011;3042;43.194;27.646;2022-10-31T11:14:24;19.63;;;7.70;;
6027;SDS011;3042;43.194;27.646;2022-10-31T11:16:54;11.17;;;7.77;;
6027;SDS011;3042;43.194;27.646;2022-10-31T11:19:34;22.93;;;6.87;;
6027;SDS011;3042;43.194;27.646;2022-10-31T11:22:07;12.40;;;7.60;;
6027;SDS011;3042;43.194;27.646;2022-10-31T11:24:40;24.20;;;6.30;;
6027;SDS011;3042;43.194;27.646;2022-10-31T11:27:11;8.13;;;5.17;;
6027;SDS011;3042;43.194;27.646;2022-10-31T11:29:41;4.00;;;2.70;;
6027;SDS011;3042;43.194;27.646;2022-10-31T11:32:17;24.20;;;10.80;;
6027;SDS011;3042;43.194;27.646;2022-10-31T11:34:48;40.80;;;20.73;;
6027;SDS011;3042;43.194;27.646;2022-10-31T11:37:20;151.30;;;72.90;;
6027;SDS011;3042;43.194;27.646;2022-10-31T11:39:51;114.60;;;54.77;;
6027;SDS011;3042;43.194;27.646;2022-10-31T11:42:22;44.03;;;21.27;;
6027;SDS011;3042;43.194;27.646;2022-10-31T11:44:51;57.43;;;24.23;;
6027;SDS011;3042;43.194;27.646;2022-10-31T11:47:22;19.60;;;6.03;;
6027;SDS011;3042;43.194;27.646;2022-10-31T11:49:53;7.13;;;3.47;;
6027;SDS011;3042;43.194;27.646;2022-10-31T11:52:23;18.80;;;9.20;;
6027;SDS011;3042;43.194;27.646;2022-10-31T11:54:54;50.30;;;8.40;;
6027;SDS011;3042;43.194;27.646;2022-10-31T11:57:23;12.47;;;3.20;;
6027;SDS011;3042;43.194;27.646;2022-10-31T11:59:55;29.77;;;7.83;;
6027;SDS011;3042;43.194;27.646;2022-10-31T12:02:24;12.97;;;5.57;;
6027;SDS011;3042;43.194;27.646;2022-10-31T12:04:55;4.33;;;3.43;;
6027;SDS011;3042;43.194;27.646;2022-10-31T12:07:29;3.77;;;2.53;;
6027;SDS011;3042;43.194;27.646;2022-10-31T12:09:56;24.43;;;4.80;;
6027;SDS011;3042;43.194;27.646;2022-10-31T12:12:46;7.70;;;3.00;;
6027;SDS011;3042;43.194;27.646;2022-10-31T12:15:30;15.30;;;3.70;;
6027;SDS011;3042;43.194;27.646;2022-10-31T12:18:06;16.73;;;3.70;;
6027;SDS011;3042;43.194;27.646;2022-10-31T12:20:56;14.57;;;3.17;;
6027;SDS011;3042;43.194;27.646;2022-10-31T12:23:45;4.70;;;3.60;;
6027;SDS011;3042;43.194;27.646;2022-10-31T12:26:25;15.67;;;3.20;;
6027;SDS011;3042;43.194;27.646;2022-10-31T12:29:03;19.77;;;4.67;;
6027;SDS011;3042;43.194;27.646;2022-10-31T12:31:48;4.87;;;3.50;;
6027;SDS011;3042;43.194;27.646;2022-10-31T12:37:26;6.53;;;3.50;;
6027;SDS011;3042;43.194;27.646;2022-10-31T12:40:10;5.47;;;2.70;;
6027;SDS011;3042;43.194;27.646;2022-10-31T12:42:54;5.60;;;3.80;;
6027;SDS011;3042;43.194;27.646;2022-10-31T12:45:34;9.63;;;4.10;;
6027;SDS011;3042;43.194;27.646;2022-10-31T12:48:18;8.03;;;3.40;;
6027;SDS011;3042;43.194;27.646;2022-10-31T12:50:56;10.33;;;4.07;;
6027;SDS011;3042;43.194;27.646;2022-10-31T12:53:39;10.53;;;3.90;;
6027;SDS011;3042;43.194;27.646;2022-10-31T12:56:21;9.00;;;3.90;;
6027;SDS011;3042;43.194;27.646;2022-10-31T12:58:56;10.40;;;3.90;;
6027;SDS011;3042;43.194;27.646;2022-10-31T13:01:29;3.13;;;2.63;;
6027;SDS011;3042;43.194;27.646;2022-10-31T13:04:02;11.30;;;4.40;;
6027;SDS011;3042;43.194;27.646;2022-10-31T13:06:38;3.93;;;2.93;;
6027;SDS011;3042;43.194;27.646;2022-10-31T13:09:10;17.93;;;4.70;;
6027;SDS011;3042;43.194;27.646;2022-10-31T13:11:43;11.97;;;3.00;;
6027;SDS011;3042;43.194;27.646;2022-10-31T13:14:15;10.30;;;3.50;;
6027;SDS011;3042;43.194;27.646;2022-10-31T13:16:51;9.87;;;3.90;;
6027;SDS011;3042;43.194;27.646;2022-10-31T13:19:22;14.40;;;4.07;;
6027;SDS011;3042;43.194;27.646;2022-10-31T13:21:55;9.87;;;2.83;;
6027;SDS011;3042;43.194;27.646;2022-10-31T13:24:30;23.93;;;5.20;;
6027;SDS011;3042;43.194;27.646;2022-10-31T13:27:03;18.13;;;4.40;;
6027;SDS011;3042;43.194;27.646;2022-10-31T13:29:38;23.97;;;4.80;;
6027;SDS011;3042;43.194;27.646;2022-10-31T13:32:10;10.00;;;4.40;;
6027;SDS011;3042;43.194;27.646;2022-10-31T13:34:39;5.53;;;3.17;;
6027;SDS011;3042;43.194;27.646;2022-10-31T13:37:11;6.73;;;3.60;;
6027;SDS011;3042;43.194;27.646;2022-10-31T13:39:49;18.33;;;5.50;;
6027;SDS011;3042;43.194;27.646;2022-10-31T13:42:32;16.07;;;4.63;;
6027;SDS011;3042;43.194;27.646;2022-10-31T13:45:12;21.90;;;5.53;;
6027;SDS011;3042;43.194;27.646;2022-10-31T13:47:40;24.47;;;4.00;;
6027;SDS011;3042;43.194;27.646;2022-10-31T13:50:19;14.93;;;3.50;;
6027;SDS011;3042;43.194;27.646;2022-10-31T13:52:48;16.33;;;3.33;;
6027;SDS011;3042;43.194;27.646;2022-10-31T13:55:34;9.73;;;3.80;;
6027;SDS011;3042;43.194;27.646;2022-10-31T13:58:17;17.30;;;3.70;;
6027;SDS011;3042;43.194;27.646;2022-10-31T14:00:57;15.23;;;5.63;;
6027;SDS011;3042;43.194;27.646;2022-10-31T14:03:26;20.00;;;6.40;;
6027;SDS011;3042;43.194;27.646;2022-10-31T14:05:54;34.30;;;5.47;;
6027;SDS011;3042;43.194;27.646;2022-10-31T14:08:23;42.50;;;6.03;;
6027;SDS011;3042;43.194;27.646;2022-10-31T14:10:51;7.13;;;2.97;;
6027;SDS011;3042;43.194;27.646;2022-10-31T14:13:22;15.73;;;3.40;;
6027;SDS011;3042;43.194;27.646;2022-10-31T14:15:55;16.23;;;3.90;;
6027;SDS011;3042;43.194;27.646;2022-10-31T14:18:28;15.23;;;4.70;;
6027;SDS011;3042;43.194;27.646;2022-10-31T14:20:58;13.00;;;4.17;;
6027;SDS011;3042;43.194;27.646;2022-10-31T14:23:31;22.20;;;6.10;;
6027;SDS011;3042;43.194;27.646;2022-10-31T14:26:17;32.47;;;5.67;;
6027;SDS011;3042;43.194;27.646;2022-10-31T14:28:48;16.03;;;3.97;;
6027;SDS011;3042;43.194;27.646;2022-10-31T14:31:28;24.83;;;3.30;;
6027;SDS011;3042;43.194;27.646;2022-10-31T14:34:04;10.40;;;3.07;;
6027;SDS011;3042;43.194;27.646;2022-10-31T14:36:47;57.13;;;4.80;;
6027;SDS011;3042;43.194;27.646;2022-10-31T14:39:24;27.10;;;4.67;;
6027;SDS011;3042;43.194;27.646;2022-10-31T14:42:04;13.43;;;4.10;;
6027;SDS011;3042;43.194;27.646;2022-10-31T14:47:36;41.07;;;5.53;;
6027;SDS011;3042;43.194;27.646;2022-10-31T14:50:19;26.13;;;3.83;;
6027;SDS011;3042;43.194;27.646;2022-10-31T14:52:51;38.37;;;4.47;;
6027;SDS011;3042;43.194;27.646;2022-10-31T14:55:21;15.70;;;3.93;;
6027;SDS011;3042;43.194;27.646;2022-10-31T14:57:50;14.17;;;2.80;;
6027;SDS011;3042;43.194;27.646;2022-10-31T15:00:22;5.07;;;2.70;;
6027;SDS011;3042;43.194;27.646;2022-10-31T15:02:55;35.77;;;3.77;;
6027;SDS011;3042;43.194;27.646;2022-10-31T15:05:29;16.77;;;3.40;;
6027;SDS011;3042;43.194;27.646;2022-10-31T15:07:58;44.23;;;5.37;;
6027;SDS011;3042;43.194;27.646;2022-10-31T15:10:26;24.67;;;6.53;;
6027;SDS011;3042;43.194;27.646;2022-10-31T15:13:08;15.00;;;4.10;;
6027;SDS011;3042;43.194;27.646;2022-10-31T15:15:39;70.77;;;5.73;;
6027;SDS011;3042;43.194;27.646;2022-10-31T15:18:07;25.17;;;4.10;;
6027;SDS011;3042;43.194;27.646;2022-10-31T15:20:42;11.27;;;3.40;;
6027;SDS011;3042;43.194;27.646;2022-10-31T15:23:11;17.70;;;3.80;;
6027;SDS011;3042;43.194;27.646;2022-10-31T15:25:43;11.77;;;2.90;;